createdAt,value
2018-09-11T00:00:40.223Z,14.80
2018-09-11T00:01:40.426Z,14.78
2018-09-11T00:02:40.550Z,14.76
2018-09-11T00:03:40.761Z,14.75
2018-09-11T00:04:40.963Z,14.74
2018-09-11T00:05:41.237Z,14.71
2018-09-11T00:06:41.474Z,14.69
2018-09-11T00:07:41.693Z,14.68
2018-09-11T00:08:41.820Z,14.66
2018-09-11T00:09:42.213Z,14.66
2018-09-11T00:10:42.485Z,14.64
2018-09-11T00:11:42.868Z,14.64
2018-09-11T00:12:43.084Z,14.62
2018-09-11T00:13:43.287Z,14.61
2018-09-11T00:14:43.483Z,14.58
2018-09-11T00:15:43.585Z,14.58
2018-09-11T00:16:43.929Z,14.57
2018-09-11T00:17:44.155Z,14.57
2018-09-11T00:18:44.293Z,14.57
2018-09-11T00:19:44.620Z,14.56
2018-09-11T00:20:44.758Z,14.56
2018-09-11T00:21:44.967Z,14.53
2018-09-11T00:22:45.180Z,14.53
2018-09-11T00:23:45.426Z,14.52
2018-09-11T00:24:45.693Z,14.50
2018-09-11T00:25:45.912Z,14.51
2018-09-11T00:26:46.117Z,14.50
2018-09-11T00:27:46.318Z,14.49
2018-09-11T00:28:46.555Z,14.47
2018-09-11T00:29:46.756Z,14.44
2018-09-11T00:30:47.008Z,14.43
2018-09-11T00:31:47.136Z,14.42
2018-09-11T00:32:47.251Z,14.39
2018-09-11T00:33:47.428Z,14.39
2018-09-11T00:34:47.604Z,14.38
2018-09-11T00:35:47.820Z,14.36
2018-09-11T00:36:48.008Z,14.34
2018-09-11T00:37:48.735Z,14.33
2018-09-11T00:38:48.958Z,14.32
2018-09-11T00:39:49.256Z,14.29
2018-09-11T00:40:49.672Z,14.27
2018-09-11T00:41:49.987Z,14.24
2018-09-11T00:42:50.609Z,14.21
2018-09-11T00:43:50.728Z,14.19
2018-09-11T00:44:50.723Z,14.18
2018-09-11T00:45:51.214Z,14.17
2018-09-11T00:46:51.349Z,14.15
2018-09-11T00:47:51.867Z,14.12
2018-09-11T00:48:51.783Z,14.07
2018-09-11T00:49:51.861Z,14.02
2018-09-11T00:50:51.990Z,13.99
2018-09-11T00:51:52.034Z,13.96
2018-09-11T00:52:52.402Z,13.95
2018-09-11T00:53:52.917Z,13.94
2018-09-11T00:54:52.805Z,13.94
2018-09-11T00:55:53.156Z,13.92
2018-09-11T00:56:53.659Z,13.90
2018-09-11T00:57:53.498Z,13.89
2018-09-11T00:58:53.965Z,13.89
2018-09-11T00:59:54.393Z,13.89
2018-09-11T01:00:54.648Z,13.87
2018-09-11T01:01:54.958Z,13.89
2018-09-11T01:02:55.160Z,13.88
2018-09-11T01:03:55.392Z,13.88
2018-09-11T01:04:55.584Z,13.87
2018-09-11T01:05:55.856Z,13.87
2018-09-11T01:06:56.112Z,13.87
2018-09-11T01:07:56.330Z,13.84
2018-09-11T01:08:56.531Z,13.81
2018-09-11T01:09:56.751Z,13.80
2018-09-11T01:10:56.953Z,13.78
2018-09-11T01:11:57.160Z,13.77
2018-09-11T01:12:57.459Z,13.75
2018-09-11T01:13:57.597Z,13.73
2018-09-11T01:14:57.816Z,13.71
2018-09-11T01:15:57.918Z,13.69
2018-09-11T01:16:58.125Z,13.68
2018-09-11T01:17:58.344Z,13.67
2018-09-11T01:18:58.574Z,13.65
2018-09-11T01:19:58.766Z,13.65
2018-09-11T01:20:58.967Z,13.65
2018-09-11T01:21:59.071Z,13.65
2018-09-11T01:22:59.362Z,13.64
2018-09-11T01:23:59.510Z,13.63
2018-09-11T01:24:59.977Z,13.60
2018-09-11T01:26:00.172Z,13.60
2018-09-11T01:27:00.333Z,13.57
2018-09-11T01:28:00.616Z,13.55
2018-09-11T01:29:00.769Z,13.54
2018-09-11T01:30:00.973Z,13.51
2018-09-11T01:32:01.138Z,13.50
2018-09-11T01:33:01.345Z,13.49
2018-09-11T01:34:01.517Z,13.47
2018-09-11T01:35:02.113Z,13.47
2018-09-11T01:36:02.191Z,13.46
2018-09-11T01:37:01.779Z,13.46
2018-09-11T01:38:02.064Z,13.45
2018-09-11T01:39:02.354Z,13.44
2018-09-11T01:40:02.631Z,13.39
2018-09-11T01:41:03.174Z,13.35
2018-09-11T01:42:03.186Z,13.33
2018-09-11T01:43:03.387Z,13.32
2018-09-11T01:44:03.303Z,13.31
2018-09-11T01:45:04.225Z,13.31
2018-09-11T01:46:04.709Z,13.27
2018-09-11T01:47:05.159Z,13.22
2018-09-11T01:48:05.573Z,13.19
2018-09-11T01:49:05.188Z,13.19
2018-09-11T01:50:06.307Z,13.17
2018-09-11T01:51:06.004Z,13.17
2018-09-11T01:52:06.519Z,13.17
2018-09-11T01:53:06.529Z,13.19
2018-09-11T01:54:06.648Z,13.17
2018-09-11T01:55:06.440Z,13.17
2018-09-11T01:56:06.854Z,13.18
2018-09-11T01:57:07.139Z,13.16
2018-09-11T01:58:07.277Z,13.16
2018-09-11T01:59:07.357Z,13.15
2018-09-11T02:00:07.391Z,13.14
2018-09-11T02:01:07.343Z,13.13
2018-09-11T02:02:07.669Z,13.12
2018-09-11T02:03:08.139Z,13.12
2018-09-11T02:04:08.223Z,13.11
2018-09-11T02:05:08.636Z,13.08
2018-09-11T02:06:08.783Z,13.06
2018-09-11T02:07:09.001Z,13.04
2018-09-11T02:08:09.122Z,13.04
2018-09-11T02:10:09.332Z,13.05
2018-09-11T02:11:09.524Z,13.04
2018-09-11T02:12:09.656Z,13.02
2018-09-11T02:13:10.039Z,13.02
2018-09-11T02:14:10.146Z,12.98
2018-09-11T02:15:10.400Z,12.97
2018-09-11T02:16:10.846Z,12.95
2018-09-11T02:17:11.045Z,12.94
2018-09-11T02:18:11.405Z,12.94
2018-09-11T02:19:11.611Z,12.93
2018-09-11T02:20:11.749Z,12.92
2018-09-11T02:21:12.122Z,12.91
2018-09-11T02:22:12.212Z,12.90
2018-09-11T02:23:12.376Z,12.88
2018-09-11T02:24:12.596Z,12.86
2018-09-11T02:25:12.983Z,12.86
2018-09-11T02:26:13.302Z,12.86
2018-09-11T02:27:13.559Z,12.82
2018-09-11T02:28:13.823Z,12.81
2018-09-11T02:29:13.999Z,12.79
2018-09-11T02:30:14.081Z,12.77
2018-09-11T02:31:14.480Z,12.76
2018-09-11T02:32:14.706Z,12.75
2018-09-11T02:33:14.935Z,12.74
2018-09-11T02:34:15.123Z,12.72
2018-09-11T02:35:15.674Z,12.66
2018-09-11T02:36:15.328Z,12.62
2018-09-11T02:37:15.580Z,12.61
2018-09-11T02:38:15.786Z,12.61
2018-09-11T02:39:16.105Z,12.62
2018-09-11T02:40:16.666Z,12.62
2018-09-11T02:41:16.268Z,12.61
2018-09-11T02:42:16.664Z,12.59
2018-09-11T02:43:16.817Z,12.59
2018-09-11T02:45:17.287Z,12.59
2018-09-11T02:46:17.442Z,12.57
2018-09-11T02:47:17.697Z,12.57
2018-09-11T02:48:18.151Z,12.56
2018-09-11T02:49:18.982Z,12.57
2018-09-11T02:50:19.404Z,12.56
2018-09-11T02:51:19.913Z,12.54
2018-09-11T02:52:19.829Z,12.50
2018-09-11T02:53:20.235Z,12.50
2018-09-11T02:54:20.749Z,12.48
2018-09-11T02:55:20.809Z,12.49
2018-09-11T02:56:20.870Z,12.49
2018-09-11T02:57:20.974Z,12.51
2018-09-11T02:58:21.086Z,12.51
2018-09-11T02:59:20.887Z,12.51
2018-09-11T03:00:21.314Z,12.51
2018-09-11T03:01:21.615Z,12.52
2018-09-11T03:02:22.011Z,12.52
2018-09-11T03:03:22.217Z,12.53
2018-09-11T03:04:22.116Z,12.54
2018-09-11T03:05:22.544Z,12.54
2018-09-11T03:06:22.875Z,12.55
2018-09-11T03:07:23.205Z,12.55
2018-09-11T03:08:23.591Z,12.57
2018-09-11T03:09:23.979Z,12.56
2018-09-11T03:10:24.426Z,12.56
2018-09-11T03:11:24.774Z,12.56
2018-09-11T03:12:25.051Z,12.54
2018-09-11T03:13:25.458Z,12.55
2018-09-11T03:14:25.898Z,12.53
2018-09-11T03:15:26.038Z,12.50
2018-09-11T03:16:26.241Z,12.48
2018-09-11T03:17:26.562Z,12.47
2018-09-11T03:18:26.664Z,12.47
2018-09-11T03:19:26.876Z,12.45
2018-09-11T03:20:27.104Z,12.44
2018-09-11T03:21:27.291Z,12.45
2018-09-11T03:22:27.522Z,12.43
2018-09-11T03:23:27.785Z,12.41
2018-09-11T03:24:28.057Z,12.42
2018-09-11T03:25:28.259Z,12.42
2018-09-11T03:26:28.456Z,12.41
2018-09-11T03:27:28.664Z,12.41
2018-09-11T03:28:28.926Z,12.43
2018-09-11T03:29:29.293Z,12.40
2018-09-11T03:30:29.519Z,12.41
2018-09-11T03:31:29.623Z,12.39
2018-09-11T03:32:29.835Z,12.38
2018-09-11T03:33:30.115Z,12.38
2018-09-11T03:34:30.266Z,12.37
2018-09-11T03:35:30.477Z,12.36
2018-09-11T03:36:30.677Z,12.35
2018-09-11T03:37:30.789Z,12.34
2018-09-11T03:38:31.152Z,12.36
2018-09-11T03:39:31.346Z,12.34
2018-09-11T03:40:31.568Z,12.33
2018-09-11T03:41:31.675Z,12.33
2018-09-11T03:42:31.908Z,12.30
2018-09-11T03:43:32.029Z,12.30
2018-09-11T03:44:32.177Z,12.30
2018-09-11T03:45:32.436Z,12.31
2018-09-11T03:46:32.588Z,12.31
2018-09-11T03:47:32.851Z,12.35
2018-09-11T03:48:33.290Z,12.36
2018-09-11T03:49:34.320Z,12.37
2018-09-11T03:50:34.025Z,12.36
2018-09-11T03:51:34.228Z,12.38
2018-09-11T03:52:34.344Z,12.38
2018-09-11T03:53:34.874Z,12.39
2018-09-11T03:54:34.970Z,12.41
2018-09-11T03:55:34.888Z,12.42
2018-09-11T03:56:35.189Z,12.42
2018-09-11T03:57:35.805Z,12.42
2018-09-11T03:58:35.814Z,12.42
2018-09-11T03:59:35.820Z,12.42
2018-09-11T04:00:35.633Z,12.43
2018-09-11T04:01:36.143Z,12.45
2018-09-11T04:02:36.041Z,12.45
2018-09-11T04:03:36.359Z,12.46
2018-09-11T04:04:36.875Z,12.45
2018-09-11T04:05:36.734Z,12.48
2018-09-11T04:06:36.881Z,12.47
2018-09-11T04:07:37.036Z,12.47
2018-09-11T04:08:37.200Z,12.47
2018-09-11T04:09:37.112Z,12.45
2018-09-11T04:10:37.626Z,12.43
2018-09-11T04:11:37.532Z,12.42
2018-09-11T04:12:37.924Z,12.40
2018-09-11T04:13:38.362Z,12.36
2018-09-11T04:14:38.736Z,12.34
2018-09-11T04:15:39.401Z,12.33
2018-09-11T04:16:39.474Z,12.32
2018-09-11T04:17:39.323Z,12.30
2018-09-11T04:18:40.137Z,12.33
2018-09-11T04:19:39.870Z,12.30
2018-09-11T04:20:40.103Z,12.29
2018-09-11T04:21:40.366Z,12.29
2018-09-11T04:22:40.657Z,12.29
2018-09-11T04:23:40.830Z,12.28
2018-09-11T04:24:41.178Z,12.28
2018-09-11T04:25:41.612Z,12.30
2018-09-11T04:26:41.639Z,12.29
2018-09-11T04:27:41.864Z,12.32
2018-09-11T04:28:42.098Z,12.31
2018-09-11T04:29:42.324Z,12.29
2018-09-11T04:30:42.509Z,12.27
2018-09-11T04:31:42.710Z,12.26
2018-09-11T04:32:42.919Z,12.26
2018-09-11T04:33:43.286Z,12.26
2018-09-11T04:34:43.518Z,12.27
2018-09-11T04:35:43.739Z,12.26
2018-09-11T04:36:43.862Z,12.26
2018-09-11T04:37:44.072Z,12.25
2018-09-11T04:38:44.284Z,12.27
2018-09-11T04:39:44.520Z,12.28
2018-09-11T04:40:44.723Z,12.38
2018-09-11T04:41:44.940Z,12.42
2018-09-11T04:42:45.132Z,12.45
2018-09-11T04:43:45.346Z,12.47
2018-09-11T04:44:45.483Z,12.50
2018-09-11T04:45:45.605Z,12.51
2018-09-11T04:46:45.828Z,12.51
2018-09-11T04:47:46.037Z,12.53
2018-09-11T04:48:46.241Z,12.57
2018-09-11T04:49:46.408Z,12.59
2018-09-11T04:50:46.633Z,12.63
2018-09-11T04:51:46.963Z,12.63
2018-09-11T04:52:47.138Z,12.63
2018-09-11T04:53:47.345Z,12.65
2018-09-11T04:54:47.479Z,12.67
2018-09-11T04:55:47.582Z,12.69
2018-09-11T04:56:47.780Z,12.71
2018-09-11T04:57:48.279Z,12.71
2018-09-11T04:58:49.005Z,12.73
2018-09-11T04:59:49.319Z,12.74
2018-09-11T05:00:49.848Z,12.77
2018-09-11T05:01:49.638Z,12.79
2018-09-11T05:02:50.156Z,12.80
2018-09-11T05:03:50.163Z,12.82
2018-09-11T05:04:50.170Z,12.83
2018-09-11T05:05:50.193Z,12.85
2018-09-11T05:06:50.289Z,12.83
2018-09-11T05:07:50.291Z,12.83
2018-09-11T05:08:50.302Z,12.83
2018-09-11T05:09:50.306Z,12.82
2018-09-11T05:10:50.223Z,12.83
2018-09-11T05:11:50.830Z,12.85
2018-09-11T05:12:50.838Z,12.84
2018-09-11T05:13:50.847Z,12.83
2018-09-11T05:14:50.954Z,12.83
2018-09-11T05:15:50.961Z,12.80
2018-09-11T05:16:51.078Z,12.79
2018-09-11T05:17:51.177Z,12.80
2018-09-11T05:18:51.184Z,12.81
2018-09-11T05:19:51.399Z,12.82
2018-09-11T05:20:51.917Z,12.84
2018-09-11T05:21:51.726Z,12.85
2018-09-11T05:22:51.924Z,12.86
2018-09-11T05:23:52.127Z,12.85
2018-09-11T05:24:52.210Z,12.84
2018-09-11T05:25:52.214Z,12.85
2018-09-11T05:26:52.218Z,12.87
2018-09-11T05:27:52.258Z,12.88
2018-09-11T05:28:52.122Z,12.89
2018-09-11T05:29:52.506Z,12.90
2018-09-11T05:30:52.899Z,12.91
2018-09-11T05:31:53.426Z,12.91
2018-09-11T05:32:53.312Z,12.89
2018-09-11T05:33:53.648Z,12.88
2018-09-11T05:34:59.488Z,12.88
2018-09-11T05:35:54.384Z,12.89
2018-09-11T05:36:54.678Z,12.90
2018-09-11T05:37:54.814Z,12.92
2018-09-11T05:38:54.920Z,12.95
2018-09-11T05:39:55.042Z,12.97
2018-09-11T05:40:55.392Z,12.98
2018-09-11T05:41:55.649Z,13.01
2018-09-11T05:42:55.868Z,13.02
2018-09-11T05:43:56.087Z,13.10
2018-09-11T05:44:56.224Z,13.14
2018-09-11T05:45:56.321Z,13.14
2018-09-11T05:46:56.514Z,13.15
2018-09-11T05:47:56.619Z,13.23
2018-09-11T05:48:56.736Z,13.23
2018-09-11T05:49:56.839Z,13.29
2018-09-11T05:50:57.154Z,13.29
2018-09-11T05:51:57.429Z,13.32
2018-09-11T05:52:57.579Z,13.34
2018-09-11T05:53:57.792Z,13.47
2018-09-11T05:54:57.894Z,13.48
2018-09-11T05:55:58.264Z,13.49
2018-09-11T05:56:58.382Z,13.59
2018-09-11T05:57:58.526Z,13.61
2018-09-11T05:58:58.742Z,13.71
2018-09-11T05:59:58.948Z,13.72
2018-09-11T06:00:59.069Z,13.74
2018-09-11T06:01:59.272Z,13.78
2018-09-11T06:02:59.496Z,13.99
2018-09-11T06:03:59.692Z,14.02
2018-09-11T06:04:59.905Z,14.05
2018-09-11T06:06:00.021Z,14.10
2018-09-11T06:07:00.218Z,14.15
2018-09-11T06:08:00.443Z,14.21
2018-09-11T06:09:00.642Z,14.27
2018-09-11T06:10:00.880Z,14.54
2018-09-11T06:11:01.013Z,14.62
2018-09-11T06:12:01.135Z,14.64
2018-09-11T06:13:01.375Z,14.80
2018-09-11T06:14:01.886Z,14.82
2018-09-11T06:15:01.531Z,14.98
2018-09-11T06:16:02.059Z,15.00
2018-09-11T06:17:01.755Z,15.03
2018-09-11T06:18:01.841Z,15.09
2018-09-11T06:19:02.111Z,15.15
2018-09-11T06:20:02.515Z,15.22
2018-09-11T06:21:02.956Z,15.50
2018-09-11T06:22:03.985Z,15.52
2018-09-11T06:23:03.902Z,15.67
2018-09-11T06:24:04.410Z,15.76
2018-09-11T06:25:04.318Z,15.86
2018-09-11T06:26:04.524Z,15.95
2018-09-11T06:27:06.276Z,16.02
2018-09-11T06:28:05.254Z,16.04
2018-09-11T06:29:05.831Z,16.08
2018-09-11T06:30:05.369Z,16.13
2018-09-11T06:31:05.785Z,16.19
2018-09-11T06:32:06.213Z,16.25
2018-09-11T06:33:06.618Z,16.52
2018-09-11T06:34:06.932Z,16.53
2018-09-11T06:35:07.054Z,16.56
2018-09-11T06:36:07.222Z,16.60
2018-09-11T06:37:07.373Z,16.64
2018-09-11T06:38:07.426Z,16.69
2018-09-11T06:39:07.495Z,16.92
2018-09-11T06:40:07.425Z,16.94
2018-09-11T06:41:07.655Z,17.04
2018-09-11T06:42:07.917Z,17.11
2018-09-11T06:43:08.342Z,17.18
2018-09-11T06:44:08.499Z,17.23
2018-09-11T06:45:09.230Z,17.32
2018-09-11T06:46:09.316Z,17.34
2018-09-11T06:47:09.578Z,17.43
2018-09-11T06:48:09.570Z,17.44
2018-09-11T06:49:09.496Z,17.46
2018-09-11T06:50:09.774Z,17.56
2018-09-11T06:51:10.017Z,17.57
2018-09-11T06:52:10.111Z,17.64
2018-09-11T06:53:10.535Z,17.71
2018-09-11T06:54:10.648Z,17.73
2018-09-11T06:55:11.051Z,17.84
2018-09-11T06:56:11.396Z,17.88
2018-09-11T06:57:11.803Z,17.90
2018-09-11T06:58:11.960Z,17.98
2018-09-11T06:59:12.287Z,18.04
2018-09-11T07:00:12.429Z,18.06
2018-09-11T07:01:12.565Z,18.19
2018-09-11T07:02:12.781Z,18.21
2018-09-11T07:03:13.024Z,18.30
2018-09-11T07:04:13.208Z,18.32
2018-09-11T07:05:13.389Z,18.35
2018-09-11T07:06:13.543Z,18.54
2018-09-11T07:07:13.742Z,18.58
2018-09-11T07:08:13.880Z,18.67
2018-09-11T07:09:14.047Z,18.71
2018-09-11T07:10:14.349Z,18.80
2018-09-11T07:11:14.571Z,18.91
2018-09-11T07:12:14.781Z,18.93
2018-09-11T07:13:14.880Z,19.06
2018-09-11T07:14:15.091Z,19.13
2018-09-11T07:15:15.708Z,19.15
2018-09-11T07:16:15.426Z,19.34
2018-09-11T07:17:15.686Z,19.43
2018-09-11T07:18:15.860Z,19.54
2018-09-11T07:19:16.058Z,19.64
2018-09-11T07:20:16.722Z,19.66
2018-09-11T07:21:16.676Z,19.71
2018-09-11T07:22:16.911Z,19.98
2018-09-11T07:23:17.147Z,20.11
2018-09-11T07:24:17.314Z,20.14
2018-09-11T07:25:17.581Z,20.36
2018-09-11T07:26:17.783Z,20.46
2018-09-11T07:27:18.131Z,20.56
2018-09-11T07:28:18.901Z,20.69
2018-09-11T07:29:19.272Z,20.80
2018-09-11T07:30:19.612Z,20.91
2018-09-11T07:31:20.008Z,20.93
2018-09-11T07:32:20.628Z,20.98
2018-09-11T07:33:20.732Z,21.22
2018-09-11T07:34:20.843Z,21.25
2018-09-11T07:35:20.859Z,21.46
2018-09-11T07:36:20.915Z,21.57
2018-09-11T07:37:21.093Z,21.67
2018-09-11T07:38:21.379Z,21.82
2018-09-11T07:39:21.587Z,21.99
2018-09-11T07:40:21.813Z,22.12
2018-09-11T07:41:22.020Z,22.29
2018-09-11T07:42:22.103Z,22.44
2018-09-11T07:43:22.093Z,22.47
2018-09-11T07:44:22.430Z,22.72
2018-09-11T07:45:22.784Z,22.92
2018-09-11T07:46:23.117Z,22.99
2018-09-11T07:47:23.497Z,23.20
2018-09-11T07:48:24.207Z,23.41
2018-09-11T07:49:24.154Z,23.62
2018-09-11T07:50:24.537Z,23.74
2018-09-11T07:51:24.762Z,23.92
2018-09-11T07:52:24.960Z,24.03
2018-09-11T07:54:25.090Z,24.15
2018-09-11T07:55:25.381Z,24.32
2018-09-11T07:56:25.521Z,24.43
2018-09-11T07:57:25.751Z,24.58
2018-09-11T07:58:26.002Z,24.66
2018-09-11T07:59:26.141Z,24.78
2018-09-11T08:00:26.507Z,24.95
2018-09-11T08:01:26.638Z,25.03
2018-09-11T08:02:26.812Z,24.95
2018-09-11T08:03:27.037Z,25.01
2018-09-11T08:04:27.212Z,24.88
2018-09-11T08:05:27.482Z,24.92
2018-09-11T08:06:27.589Z,25.14
2018-09-11T08:07:27.751Z,25.33
2018-09-11T08:08:27.964Z,25.51
2018-09-11T08:09:28.225Z,25.49
2018-09-11T08:10:28.374Z,25.66
2018-09-11T08:11:28.482Z,25.75
2018-09-11T08:12:28.726Z,25.85
2018-09-11T08:13:28.944Z,25.85
2018-09-11T08:14:29.108Z,25.97
2018-09-11T08:15:29.327Z,26.00
2018-09-11T08:16:29.598Z,26.18
2018-09-11T08:17:29.760Z,26.27
2018-09-11T08:18:29.955Z,26.40
2018-09-11T08:19:30.164Z,26.42
2018-09-11T08:20:30.406Z,26.50
2018-09-11T08:21:30.649Z,26.64
2018-09-11T08:22:30.800Z,26.75
2018-09-11T08:23:31.009Z,26.62
2018-09-11T08:24:31.221Z,26.81
2018-09-11T08:25:31.492Z,26.85
2018-09-11T08:26:31.845Z,26.99
2018-09-11T08:27:32.105Z,27.10
2018-09-11T08:28:32.356Z,27.16
2018-09-11T08:29:32.519Z,27.26
2018-09-11T08:30:32.705Z,27.25
2018-09-11T08:31:32.950Z,27.28
2018-09-11T08:32:33.720Z,27.18
2018-09-11T08:33:34.016Z,27.29
2018-09-11T08:34:34.450Z,27.22
2018-09-11T08:35:34.864Z,27.00
2018-09-11T08:36:35.390Z,27.07
2018-09-11T08:37:35.487Z,27.28
2018-09-11T08:38:35.604Z,27.42
2018-09-11T08:39:35.601Z,27.44
2018-09-11T08:40:35.855Z,27.54
2018-09-11T08:41:36.225Z,27.62
2018-09-11T08:42:36.459Z,27.58
2018-09-11T08:43:36.753Z,27.51
2018-09-11T08:44:37.059Z,27.58
2018-09-11T08:45:37.152Z,27.59
2018-09-11T08:46:37.323Z,27.62
2018-09-11T08:47:37.238Z,27.41
2018-09-11T08:48:37.575Z,27.54
2018-09-11T08:49:37.960Z,27.55
2018-09-11T08:50:38.329Z,27.68
2018-09-11T08:51:38.714Z,27.64
2018-09-11T08:52:39.260Z,27.75
2018-09-11T08:53:39.439Z,27.88
2018-09-11T08:54:39.658Z,28.02
2018-09-11T08:55:39.900Z,27.99
2018-09-11T08:56:40.053Z,27.79
2018-09-11T08:57:40.249Z,27.65
2018-09-11T08:58:40.538Z,27.81
2018-09-11T08:59:40.756Z,27.99
2018-09-11T09:00:40.967Z,28.19
2018-09-11T09:01:41.318Z,28.36
2018-09-11T09:02:41.568Z,28.48
2018-09-11T09:03:41.663Z,28.64
2018-09-11T09:04:41.883Z,28.51
2018-09-11T09:05:42.097Z,28.74
2018-09-11T09:06:42.245Z,28.67
2018-09-11T09:07:42.478Z,29.01
2018-09-11T09:08:42.843Z,29.03
2018-09-11T09:09:43.028Z,29.28
2018-09-11T09:10:43.209Z,29.48
2018-09-11T09:11:43.417Z,29.25
2018-09-11T09:12:43.632Z,29.36
2018-09-11T09:13:43.852Z,29.48
2018-09-11T09:14:44.054Z,29.51
2018-09-11T09:15:44.269Z,29.62
2018-09-11T09:16:44.498Z,29.70
2018-09-11T09:17:44.672Z,29.79
2018-09-11T09:18:44.782Z,29.90
2018-09-11T09:19:45.000Z,29.90
2018-09-11T09:20:45.268Z,29.78
2018-09-11T09:21:45.440Z,29.82
2018-09-11T09:22:45.659Z,29.57
2018-09-11T09:23:45.959Z,29.65
2018-09-11T09:24:46.097Z,29.68
2018-09-11T09:25:46.407Z,29.60
2018-09-11T09:26:46.585Z,29.35
2018-09-11T09:27:46.831Z,29.15
2018-09-11T09:28:47.002Z,29.41
2018-09-11T09:29:47.214Z,29.59
2018-09-11T09:30:47.469Z,29.46
2018-09-11T09:31:47.653Z,29.41
2018-09-11T09:32:47.930Z,29.42
2018-09-11T09:33:48.346Z,29.35
2018-09-11T09:34:49.274Z,29.28
2018-09-11T09:35:49.280Z,29.05
2018-09-11T09:36:49.560Z,28.78
2018-09-11T09:37:49.710Z,28.89
2018-09-11T09:38:50.224Z,28.63
2018-09-11T09:39:50.227Z,28.64
2018-09-11T09:40:50.132Z,28.49
2018-09-11T09:41:50.455Z,28.57
2018-09-11T09:42:51.068Z,28.83
2018-09-11T09:43:51.117Z,29.00
2018-09-11T09:44:50.956Z,29.10
2018-09-11T09:45:51.133Z,28.77
2018-09-11T09:46:51.308Z,28.69
2018-09-11T09:47:51.507Z,28.50
2018-09-11T09:48:51.624Z,28.94
2018-09-11T09:49:52.021Z,29.14
2018-09-11T09:50:52.290Z,29.26
2018-09-11T09:51:52.107Z,29.24
2018-09-11T09:52:52.565Z,29.40
2018-09-11T09:53:52.902Z,29.64
2018-09-11T09:54:53.296Z,29.87
2018-09-11T09:55:53.676Z,30.11
2018-09-11T09:56:54.047Z,30.06
2018-09-11T09:57:54.315Z,30.39
2018-09-11T09:58:54.526Z,30.58
2018-09-11T09:59:54.689Z,30.74
2018-09-11T10:00:54.893Z,30.96
2018-09-11T10:01:55.132Z,30.71
2018-09-11T10:02:55.306Z,30.81
2018-09-11T10:03:55.653Z,30.99
2018-09-11T10:04:55.861Z,30.92
2018-09-11T10:05:56.053Z,31.05
2018-09-11T10:06:56.271Z,31.15
2018-09-11T10:07:56.491Z,31.16
2018-09-11T10:08:56.614Z,31.36
2018-09-11T10:09:56.818Z,31.23
2018-09-11T10:10:56.983Z,31.32
2018-09-11T10:11:57.229Z,31.53
2018-09-11T10:12:57.439Z,31.61
2018-09-11T10:13:57.534Z,31.42
2018-09-11T10:14:57.832Z,31.06
2018-09-11T10:15:57.972Z,31.32
2018-09-11T10:16:58.214Z,31.50
2018-09-11T10:17:58.397Z,31.37
2018-09-11T10:18:58.607Z,31.30
2018-09-11T10:19:58.877Z,31.28
2018-09-11T10:20:59.197Z,31.13
2018-09-11T10:21:59.470Z,31.07
2018-09-11T10:22:59.741Z,30.98
2018-09-11T10:23:59.969Z,30.91
2018-09-11T10:25:00.235Z,30.39
2018-09-11T10:26:00.411Z,29.95
2018-09-11T10:27:00.595Z,29.92
2018-09-11T10:28:00.759Z,29.69
2018-09-11T10:29:00.892Z,29.74
2018-09-11T10:30:01.295Z,29.57
2018-09-11T10:31:01.474Z,29.53
2018-09-11T10:32:02.022Z,29.48
2018-09-11T10:33:01.634Z,29.49
2018-09-11T10:34:01.824Z,29.42
2018-09-11T10:35:01.886Z,29.30
2018-09-11T10:36:02.357Z,29.15
2018-09-11T10:37:02.790Z,29.13
2018-09-11T10:38:03.070Z,28.92
2018-09-11T10:39:04.133Z,28.52
2018-09-11T10:40:04.024Z,28.49
2018-09-11T10:41:04.125Z,28.15
2018-09-11T10:42:04.353Z,27.98
2018-09-11T10:43:04.685Z,27.73
2018-09-11T10:44:05.088Z,27.72
2018-09-11T10:45:05.666Z,27.68
2018-09-11T10:46:05.815Z,27.68
2018-09-11T10:47:06.233Z,27.67
2018-09-11T10:48:06.760Z,27.65
2018-09-11T10:49:06.658Z,27.61
2018-09-11T10:50:06.971Z,27.47
2018-09-11T10:51:07.169Z,27.31
2018-09-11T10:52:07.137Z,27.17
2018-09-11T10:53:07.476Z,27.17
2018-09-11T10:54:07.917Z,27.01
2018-09-11T10:55:08.324Z,27.19
2018-09-11T10:56:08.413Z,27.29
2018-09-11T10:57:08.796Z,27.35
2018-09-11T10:58:09.102Z,27.40
2018-09-11T10:59:09.254Z,27.47
2018-09-11T11:00:09.573Z,27.50
2018-09-11T11:02:09.944Z,27.52
2018-09-11T11:03:10.399Z,27.85
2018-09-11T11:04:10.580Z,28.10
2018-09-11T11:05:10.833Z,28.30
2018-09-11T11:06:10.924Z,28.53
2018-09-11T11:07:11.094Z,28.85
2018-09-11T11:08:11.305Z,29.14
2018-09-11T11:09:11.522Z,29.39
2018-09-11T11:10:11.731Z,29.62
2018-09-11T11:11:11.948Z,29.86
2018-09-11T11:12:12.237Z,30.10
2018-09-11T11:13:12.380Z,30.41
2018-09-11T11:14:12.708Z,30.45
2018-09-11T11:15:13.274Z,30.90
2018-09-11T11:16:13.075Z,31.06
2018-09-11T11:17:13.355Z,31.30
2018-09-11T11:18:13.321Z,31.56
2018-09-11T11:19:13.600Z,31.71
2018-09-11T11:20:13.898Z,31.83
2018-09-11T11:21:14.067Z,31.75
2018-09-11T11:22:14.291Z,32.12
2018-09-11T11:23:14.494Z,32.32
2018-09-11T11:24:14.767Z,32.33
2018-09-11T11:25:15.258Z,32.52
2018-09-11T11:26:15.517Z,32.47
2018-09-11T11:27:15.770Z,32.42
2018-09-11T11:30:16.250Z,32.62
2018-09-11T11:31:16.490Z,32.35
2018-09-11T11:32:16.693Z,32.68
2018-09-11T11:33:17.047Z,32.51
2018-09-11T11:34:17.212Z,32.85
2018-09-11T11:35:17.458Z,33.04
2018-09-11T11:36:17.680Z,33.18
2018-09-11T11:37:17.969Z,33.30
2018-09-11T11:38:18.555Z,33.60
2018-09-11T11:39:18.758Z,33.77
2018-09-11T11:40:18.959Z,33.48
2018-09-11T11:41:19.282Z,33.27
2018-09-11T11:42:19.742Z,33.49
2018-09-11T11:43:20.123Z,33.49
2018-09-11T11:44:20.736Z,33.47
2018-09-11T11:45:21.036Z,33.65
2018-09-11T11:46:21.040Z,33.50
2018-09-11T11:47:21.266Z,33.79
2018-09-11T11:48:21.705Z,33.67
2018-09-11T11:49:21.893Z,33.58
2018-09-11T11:50:21.989Z,33.66
2018-09-11T11:51:21.966Z,33.66
2018-09-11T11:52:22.363Z,33.65
2018-09-11T11:53:22.803Z,33.82
2018-09-11T11:54:23.266Z,33.90
2018-09-11T11:55:23.406Z,33.94
2018-09-11T11:56:23.780Z,34.04
2018-09-11T11:57:24.213Z,34.07
2018-09-11T11:58:24.500Z,34.28
2018-09-11T11:59:24.721Z,34.51
2018-09-11T12:00:24.963Z,34.83
2018-09-11T12:01:25.265Z,35.05
2018-09-11T12:02:25.450Z,35.20
2018-09-11T12:03:25.648Z,35.33
2018-09-11T12:04:26.001Z,35.32
2018-09-11T12:05:26.256Z,35.37
2018-09-11T12:06:26.456Z,35.33
2018-09-11T12:07:26.895Z,35.38
2018-09-11T12:08:27.065Z,35.50
2018-09-11T12:09:27.292Z,35.55
2018-09-11T12:10:27.487Z,35.64
2018-09-11T12:11:27.584Z,35.68
2018-09-11T12:12:27.921Z,35.71
2018-09-11T12:13:28.296Z,35.77
2018-09-11T12:14:28.527Z,35.34
2018-09-11T12:15:28.795Z,35.30
2018-09-11T12:16:29.019Z,35.17
2018-09-11T12:17:29.142Z,35.24
2018-09-11T12:18:29.280Z,35.32
2018-09-11T12:19:29.496Z,35.37
2018-09-11T12:20:29.781Z,35.47
2018-09-11T12:21:29.896Z,35.52
2018-09-11T12:22:30.145Z,35.55
2018-09-11T12:23:30.492Z,35.58
2018-09-11T12:24:30.686Z,35.73
2018-09-11T12:25:30.903Z,35.88
2018-09-11T12:26:30.967Z,35.86
2018-09-11T12:27:31.218Z,35.02
2018-09-11T12:28:31.410Z,35.35
2018-09-11T12:29:31.545Z,35.07
2018-09-11T12:30:31.681Z,35.34
2018-09-11T12:31:31.814Z,35.48
2018-09-11T12:32:32.070Z,35.63
2018-09-11T12:33:32.194Z,35.74
2018-09-11T12:34:32.414Z,35.79
2018-09-11T12:35:32.660Z,35.89
2018-09-11T12:36:32.955Z,36.11
2018-09-11T12:37:33.780Z,36.23
2018-09-11T12:38:34.097Z,36.15
2018-09-11T12:39:34.520Z,36.16
2018-09-11T12:40:35.031Z,36.13
2018-09-11T12:41:35.139Z,36.22
2018-09-11T12:42:35.247Z,36.13
2018-09-11T12:43:35.153Z,35.98
2018-09-11T12:44:35.683Z,35.88
2018-09-11T12:45:35.632Z,35.84
2018-09-11T12:46:36.361Z,35.87
2018-09-11T12:47:36.591Z,35.82
2018-09-11T12:48:36.949Z,35.91
2018-09-11T12:49:36.540Z,35.62
2018-09-11T12:50:36.835Z,35.73
2018-09-11T12:51:37.084Z,35.78
2018-09-11T12:52:37.308Z,35.92
2018-09-11T12:53:36.926Z,35.92
2018-09-11T12:54:37.336Z,36.02
2018-09-11T12:55:37.687Z,35.69
2018-09-11T12:56:38.027Z,35.81
2018-09-11T12:57:38.499Z,35.80
2018-09-11T12:58:39.126Z,35.87
2018-09-11T12:59:39.086Z,35.95
2018-09-11T13:00:39.439Z,36.09
2018-09-11T13:01:39.589Z,36.25
2018-09-11T13:02:39.818Z,36.15